Redrock, New Mexico
Current Conditions -  °F | °C
As of 6:55 AM on Monday 24 Nov 2014 (Local Time) from KLSB Reporting Station
Clear Clear  
Wind Chill: 19°   Ceiling: Unl
Heat Index: 19°   Visibility: 10mi
Dew Point: -2°   Wind: 0mph
Humidity: 39%   Direction: NA
Pressure: 30.19"   Gusts: NA
Location:  32.69°N, 108.74°W
Report Text: KLSB 241355Z AUTO 00000KT 10SM CLR M07/M19 A3019 RMK AO2
Loading
Personal Weather Stations






























Interactive Weather Map New forecast layout! Learn more

10-Day Weather Forecast

Advertisements
Track Severe Weather on mobile